KJCA

Jackson County Airport

Jefferson, Georgia, USA
METAR KJCA 190255Z AUTO 03004KT 10SM CLR 21/21 A2998 RMK AO2 T02130206
Observed Flight Rules
Sep-19 @ 02:55 UTC (23 minutes ago) Visual Flight Rules
Wind Visibility Clouds
30° at 4 knots 10 miles
  • Clear skies
Temperatures Readings
Current 21°C / 70°F
Dewpoint 21°C / 70°F
Humidity 100%
Altimeter 29.98" Hg
Pressure 1015 hPa
Elevation 290
METAR KJCA 190255Z AUTO 03004KT 10SM CLR 21/21 A2998 RMK AO2 T02130206
Observed Flight Rules
Sep-19 @ 02:55 UTC
(23 minutes ago)
VFR
Wind Visibility
30° at 4 knots 10 miles
Clouds
  • Clear skies
Temperature Dewpoint
21°C / 70°F 21°C / 70°F
Humidity Altimeter Pressure
100% 29.98" Hg 1015 hPa